首页
METAR-TAF:

METAR-TAF

机场 :

Hancock, 密歇根州, 美国

纬度: 47-10-06N, 经度: 088-29-20W, 海拔: 334米

当前天气观测

该预报发布于47分钟前的06:53 UTC
风速3节,风向西北
温度 9°C
湿度 81%
气压 1010 hPa
能見度: 16.1公里
多云层高于6000英尺
阴天层高于9500英尺

METAR: KCMX 220653Z AUTO 32003KT 10SM BKN060 OVC095 09/06 A2983 RMK AO2 SLP105 T00940061

时间: 03:40 (07:40 UTC)

预报

该预报发布于2小时和10分钟前的05:30 UTC
预报有效从22日的 06点(UTC)到 23日的 06点(UTC)
风速5节,风向西转西北
能見度: 10公里
阴天层高于7000英尺
从 22日的 1500点(UTC)
风速10节,风向西,有时为18节阵风
能見度: 10公里
散云层高于10000英尺
从 22日的 2200点(UTC)
风速7节,风向西
能見度: 10公里
少量云层高于10000英尺

TAF: KCMX 220530Z 2206/2306 29005KT P6SM OVC070 FM221500 27010G18KT P6SM SCT100 FM222200 28007KT P6SM FEW100

超过4000个机场的气象观测和天气预报(METAR&TAF报告)。

可查询的气象台以黄色和红色小点在地图上表示。

将鼠标移到小点上方,可查看气象台名称。

然后点击查看天气观测和预报。

如需切换地图:点击带黑十字的绿色按钮放大地图;点击带横线的绿色按钮缩小地图;或者点击绿色箭头查看邻近地区的地图。


METAR-TAF: